Time;durP1;ratioP1;P1;durP2;ratioP2;P2;SDS_P1;SDS_P2;PMS_P1;PMS_P2;Temp;Humidity;BMP_temperature;BMP_pressure;BME280_temperature;BME280_humidity;BME280_pressure;Samples;Min_cycle;Max_cycle;Signal;HPM_P1;HPM_P2
2022/08/20 00:01:00;;;;;;;1.02;0.63;;;;;;;-140.72;100.00;52530.88;4951385;28;20464;-67
2022/08/20 00:03:28;;;;;;;1.15;0.43;;;;;;;-140.72;100.00;52528.84;4950374;28;20055;-66
2022/08/20 00:05:58;;;;;;;1.17;0.65;;;;;;;-140.72;100.00;52536.97;4948701;29;20110;-67
2022/08/20 00:08:23;;;;;;;1.40;0.73;;;;;;;-140.72;100.00;52530.88;4950717;28;20019;-66
2022/08/20 00:10:50;;;;;;;1.38;0.73;;;;;;;-140.72;100.00;52476.09;4947829;28;20041;-67
2022/08/20 00:13:24;;;;;;;1.17;0.60;;;;;;;-140.72;100.00;52518.69;4950692;28;20039;-66
2022/08/20 00:15:50;;;;;;;1.77;0.82;;;;;;;-140.72;100.00;52488.25;4950021;28;20050;-66
2022/08/20 00:18:15;;;;;;;1.02;0.65;;;;;;;-140.72;100.00;52581.59;4951415;28;20031;-66
2022/08/20 00:20:45;;;;;;;2.55;0.82;;;;;;;-140.72;100.00;52490.28;4950954;28;20094;-66
2022/08/20 00:23:11;;;;;;;2.78;0.75;;;;;;;-140.72;100.00;52524.78;4950050;28;20489;-66
2022/08/20 00:25:37;;;;;;;1.48;0.90;;;;;;;-140.72;100.00;52524.78;4950933;28;20035;-65
2022/08/20 00:28:03;;;;;;;2.13;0.60;;;;;;;-140.72;100.00;52504.50;4951064;28;20495;-66
2022/08/20 00:30:30;;;;;;;2.47;1.27;;;;;;;-140.72;100.00;52547.09;4949195;28;20039;-67
2022/08/20 00:33:00;;;;;;;0.90;0.60;;;;;;;-140.72;100.00;52504.50;4950703;28;20467;-67
2022/08/20 00:35:29;;;;;;;2.05;0.68;;;;;;;-140.72;100.00;52492.31;4950402;28;20079;-66
2022/08/20 00:37:54;;;;;;;0.70;0.45;;;;;;;-140.72;100.00;52545.06;4947730;28;20057;-66
2022/08/20 00:40:25;;;;;;;1.02;0.70;;;;;;;-140.72;100.00;52534.94;4950424;28;20019;-66
2022/08/20 00:42:56;;;;;;;0.70;0.50;;;;;;;-140.72;100.00;52500.44;4950186;28;20464;-67
2022/08/20 00:45:23;;;;;;;1.02;0.65;;;;;;;-140.72;100.00;52504.50;4949685;28;20448;-66
2022/08/20 00:47:48;;;;;;;3.42;1.70;;;;;;;-140.72;100.00;52528.84;4950368;28;20107;-66
2022/08/20 00:50:18;;;;;;;4.20;0.90;;;;;;;-140.72;100.00;52510.59;4949553;28;20462;-65
2022/08/20 00:52:48;;;;;;;1.95;1.23;;;;;;;-140.72;100.00;52545.06;4949820;28;20460;-66
2022/08/20 00:55:16;;;;;;;1.25;0.90;;;;;;;-140.72;100.00;52520.72;4950359;28;20023;-66
2022/08/20 00:57:53;;;;;;;5.20;2.35;;;;;;;-140.72;100.00;52516.66;4949311;28;20468;-66
2022/08/20 01:00:31;;;;;;;4.03;2.92;;;;;;;-140.72;100.00;52534.94;4950035;28;20468;-66
2022/08/20 01:02:59;;;;;;;2.47;1.98;;;;;;;-140.72;100.00;52545.06;4946133;28;20158;-67
2022/08/20 01:05:25;;;;;;;3.97;2.20;;;;;;;-140.72;100.00;52504.50;4949558;28;20094;-66
2022/08/20 01:07:52;;;;;;;4.55;2.58;;;;;;;-140.72;100.00;52569.44;4950020;28;20400;-67
2022/08/20 01:10:25;;;;;;;4.95;2.30;;;;;;;-140.72;100.00;52532.91;4949641;28;20268;-66
2022/08/20 01:12:54;;;;;;;6.97;2.67;;;;;;;-140.72;100.00;52567.41;4949269;28;20162;-66
2022/08/20 01:15:22;;;;;;;2.50;1.83;;;;;;;-140.72;100.00;52567.41;4949630;28;20410;-66
2022/08/20 01:17:52;;;;;;;3.70;1.85;;;;;;;-140.72;100.00;52553.19;4950062;28;20022;-67
2022/08/20 01:20:24;;;;;;;6.03;2.05;;;;;;;-140.72;100.00;52561.31;4947115;28;20025;-66
2022/08/20 01:23:28;;;;;;;4.28;2.00;;;;;;;-140.72;100.00;52557.25;4949793;28;20027;-65
2022/08/20 01:26:11;;;;;;;3.13;1.58;;;;;;;-140.72;100.00;52573.50;4949580;28;20093;-66
2022/08/20 01:28:54;;;;;;;2.35;1.73;;;;;;;-140.72;100.00;52563.34;4936722;28;20369;-66
2022/08/20 01:31:25;;;;;;;4.43;1.88;;;;;;;-140.72;100.00;52536.97;4950964;28;20118;-66
2022/08/20 01:33:53;;;;;;;3.67;1.90;;;;;;;-140.72;100.00;52545.06;4949686;28;20030;-66
2022/08/20 01:36:22;;;;;;;5.72;2.00;;;;;;;-140.72;100.00;52581.59;4950284;28;20110;-66
2022/08/20 01:38:48;;;;;;;;;;;;;;;-140.72;100.00;52583.63;4931324;28;20198;-67
2022/08/20 01:41:44;;;;;;;1.65;1.15;;;;;;;-140.72;100.00;52518.69;4943029;28;20016;-66
2022/08/20 01:44:12;;;;;;;3.05;1.50;;;;;;;-140.72;100.00;52547.09;4948286;28;20027;-68
2022/08/20 01:46:40;;;;;;;3.65;1.92;;;;;;;-140.72;100.00;52605.94;4949683;28;20039;-66
2022/08/20 01:49:31;;;;;;;4.25;1.30;;;;;;;-140.72;100.00;52545.06;4948751;28;20530;-66
2022/08/20 01:52:00;;;;;;;2.05;1.80;;;;;;;-140.72;100.00;52561.31;4950180;28;20162;-67
2022/08/20 01:54:27;;;;;;;3.80;1.70;;;;;;;-140.72;100.00;52577.53;4949203;28;20179;-66
2022/08/20 01:56:54;;;;;;;2.47;1.23;;;;;;;-140.72;100.00;52573.50;4950015;28;20468;-66
2022/08/20 01:59:20;;;;;;;7.30;2.70;;;;;;;-140.72;100.00;52571.47;4950098;28;20476;-67
2022/08/20 02:01:47;;;;;;;2.72;1.52;;;;;;;-140.72;100.00;52583.63;4949872;28;20111;-66
2022/08/20 02:04:13;;;;;;;1.77;1.10;;;;;;;-140.72;100.00;52573.50;4950133;28;20047;-66
2022/08/20 02:06:42;;;;;;;3.03;1.30;;;;;;;-140.72;100.00;52541.03;4949624;28;20027;-66
2022/08/20 02:09:09;;;;;;;4.45;1.85;;;;;;;-140.72;100.00;52565.38;4949232;28;20028;-67
2022/08/20 02:11:35;;;;;;;3.20;1.80;;;;;;;-140.72;100.00;52581.59;4949650;28;20264;-66
2022/08/20 02:14:05;;;;;;;3.47;1.95;;;;;;;-140.72;100.00;52583.63;4950265;28;20356;-67
2022/08/20 02:16:35;;;;;;;2.95;1.88;;;;;;;-140.72;100.00;52569.44;4949283;28;20134;-67
2022/08/20 02:19:08;;;;;;;4.57;1.80;;;;;;;-140.72;100.00;52593.78;4947228;28;20070;-66
2022/08/20 02:21:37;;;;;;;1.85;1.23;;;;;;;-140.72;100.00;52557.25;4941800;29;20031;-66
2022/08/20 02:24:03;;;;;;;7.20;2.10;;;;;;;-140.72;100.00;52595.81;4944405;28;20028;-66
2022/08/20 02:26:29;;;;;;;3.35;1.77;;;;;;;-140.72;100.00;52536.97;4942585;28;20123;-67
2022/08/20 02:28:55;;;;;;;4.38;1.92;;;;;;;-140.72;100.00;52597.84;4949285;28;20031;-67
2022/08/20 02:31:22;;;;;;;3.83;1.95;;;;;;;-140.72;100.00;52577.53;4949234;28;20400;-67
2022/08/20 02:33:48;;;;;;;2.50;1.40;;;;;;;-140.72;100.00;52577.53;4945067;28;20058;-67
2022/08/20 02:36:16;;;;;;;3.95;1.90;;;;;;;-140.72;100.00;52581.59;4949076;28;20051;-67
2022/08/20 02:38:42;;;;;;;2.28;1.55;;;;;;;-140.72;100.00;52603.94;4949763;28;20441;-67
2022/08/20 02:41:09;;;;;;;3.83;1.98;;;;;;;-140.72;100.00;52605.94;4949825;28;20027;-66
2022/08/20 02:43:36;;;;;;;4.63;2.28;;;;;;;-140.72;100.00;52585.66;4948833;28;20097;-66
2022/08/20 02:46:01;;;;;;;3.65;1.73;;;;;;;-140.72;100.00;52567.41;4950463;28;20038;-67
2022/08/20 02:48:27;;;;;;;3.80;1.95;;;;;;;-140.72;100.00;52601.91;4949524;28;20031;-67
2022/08/20 02:50:57;;;;;;;3.45;2.15;;;;;;;-140.72;100.00;52601.91;4946687;28;20042;-67
2022/08/20 02:53:26;;;;;;;2.42;1.50;;;;;;;-140.72;100.00;52571.47;4948348;28;20109;-66
2022/08/20 02:55:52;;;;;;;3.70;1.70;;;;;;;-140.72;100.00;52614.06;4954684;28;20439;-67
2022/08/20 02:58:18;;;;;;;3.90;2.10;;;;;;;-140.72;100.00;52589.72;4954778;28;20103;-67
2022/08/20 03:00:45;;;;;;;4.35;1.98;;;;;;;-140.72;100.00;52573.50;4954513;28;20027;-67
2022/08/20 03:03:11;;;;;;;3.65;1.52;;;;;;;-140.72;100.00;52557.25;4954189;28;20499;-67
2022/08/20 03:05:38;;;;;;;4.43;1.63;;;;;;;-140.72;100.00;52553.19;4945155;28;20024;-68
2022/08/20 03:08:06;;;;;;;3.75;1.98;;;;;;;-140.72;100.00;52585.66;4951873;28;20496;-67
2022/08/20 03:10:33;;;;;;;2.67;1.38;;;;;;;-140.72;100.00;52603.94;4947802;28;20369;-66
2022/08/20 03:13:01;;;;;;;4.60;1.77;;;;;;;-140.72;100.00;52610.00;4953536;28;20035;-65
2022/08/20 03:15:28;;;;;;;4.55;1.55;;;;;;;-140.72;100.00;52575.50;4954582;28;20118;-66
2022/08/20 03:17:53;;;;;;;1.80;1.20;;;;;;;-140.72;100.00;52610.00;4953519;28;20047;-67
2022/08/20 03:20:18;;;;;;;3.40;1.70;;;;;;;-140.72;100.00;52622.19;4953779;28;20038;-67
2022/08/20 03:22:44;;;;;;;3.97;2.08;;;;;;;-140.72;100.00;52589.72;4953440;28;20042;-67
2022/08/20 03:25:11;;;;;;;6.07;1.60;;;;;;;-140.72;100.00;52634.38;4942057;29;20491;-66
2022/08/20 03:27:36;;;;;;;5.35;1.80;;;;;;;-140.72;100.00;52561.31;4953875;28;20027;-67
2022/08/20 03:30:05;;;;;;;3.08;1.85;;;;;;;-140.72;100.00;52577.53;4954158;28;20028;-67
2022/08/20 03:32:30;;;;;;;2.63;1.58;;;;;;;-140.72;100.00;52553.19;4953765;28;20055;-66
2022/08/20 03:34:55;;;;;;;4.90;1.98;;;;;;;-140.72;100.00;52597.84;4953661;28;20078;-66
2022/08/20 03:37:21;;;;;;;2.97;1.98;;;;;;;-140.72;100.00;52575.50;4954225;28;20441;-68
2022/08/20 03:39:46;;;;;;;3.50;1.83;;;;;;;-140.72;100.00;52601.91;4953218;28;20031;-65
2022/08/20 03:42:12;;;;;;;3.83;1.42;;;;;;;-140.72;100.00;52603.94;4954039;28;20114;-65
2022/08/20 03:44:37;;;;;;;3.83;2.15;;;;;;;-140.72;100.00;52597.84;4954462;28;20041;-66
2022/08/20 03:47:06;;;;;;;4.15;2.10;;;;;;;-140.72;100.00;52640.44;4952846;28;20034;-66
2022/08/20 03:49:33;;;;;;;3.85;2.15;;;;;;;-140.72;100.00;52577.53;4954049;28;20116;-67
2022/08/20 03:52:00;;;;;;;3.45;1.77;;;;;;;-140.72;100.00;52597.84;4954009;28;20031;-66
2022/08/20 03:54:25;;;;;;;5.13;2.25;;;;;;;-140.72;100.00;52634.38;4952962;28;20071;-66
2022/08/20 03:56:51;;;;;;;6.97;2.22;;;;;;;-140.72;100.00;52610.00;4953780;28;20046;-66
2022/08/20 03:59:16;;;;;;;4.63;1.85;;;;;;;-140.72;100.00;52622.19;4953418;28;20031;-65
2022/08/20 04:01:41;;;;;;;2.53;1.77;;;;;;;-140.72;100.00;52605.94;4952052;28;20035;-67
2022/08/20 04:04:07;;;;;;;3.13;1.80;;;;;;;-140.72;100.00;52612.03;4953516;28;20045;-66
2022/08/20 04:06:32;;;;;;;3.28;2.15;;;;;;;-140.72;100.00;52628.28;4953226;28;20461;-66
2022/08/20 04:08:57;;;;;;;2.75;1.98;;;;;;;-140.72;100.00;52614.06;4953093;28;20027;-67
2022/08/20 04:11:23;;;;;;;2.50;1.63;;;;;;;-140.72;100.00;52630.31;4953066;28;20061;-66
2022/08/20 04:13:48;;;;;;;2.05;1.38;;;;;;;-140.72;100.00;52638.41;4953688;28;20031;-66
2022/08/20 04:16:14;;;;;;;2.50;1.67;;;;;;;-140.72;100.00;52601.91;4952226;28;20062;-66
2022/08/20 04:18:39;;;;;;;2.75;1.70;;;;;;;-140.72;100.00;52630.31;4953225;28;20027;-66
2022/08/20 04:21:04;;;;;;;2.70;1.80;;;;;;;-140.72;100.00;52636.38;4952667;28;20086;-67
2022/08/20 04:23:30;;;;;;;2.70;1.85;;;;;;;-140.72;100.00;52607.97;4952206;28;20034;-65
2022/08/20 04:25:56;;;;;;;2.97;1.83;;;;;;;-140.72;100.00;52610.00;4952750;28;20067;-66
2022/08/20 04:28:25;;;;;;;2.70;1.83;;;;;;;-140.72;100.00;52648.56;4952673;28;20094;-67
2022/08/20 04:30:52;;;;;;;5.47;2.40;;;;;;;-140.72;100.00;52583.63;4951682;28;20541;-67
2022/08/20 04:33:19;;;;;;;4.07;2.00;;;;;;;-140.72;100.00;52634.38;4952378;28;20468;-66
2022/08/20 04:35:45;;;;;;;3.50;2.30;;;;;;;-140.72;100.00;52636.38;4952031;28;20055;-66
2022/08/20 04:38:17;;;;;;;2.60;1.92;;;;;;;-140.72;100.00;52632.34;4952139;28;20494;-67
2022/08/20 04:40:52;;;;;;;8.63;2.38;;;;;;;-140.72;100.00;52610.00;4951960;28;20110;-66
2022/08/20 04:43:24;;;;;;;3.28;2.33;;;;;;;-140.72;100.00;52599.88;4948822;29;20516;-66
2022/08/20 04:45:50;;;;;;;5.03;2.15;;;;;;;-140.72;100.00;52681.03;4952097;28;20039;-66
2022/08/20 04:48:17;;;;;;;4.78;2.47;;;;;;;-140.72;100.00;52593.78;4952367;28;20031;-66
2022/08/20 04:50:45;;;;;;;5.18;2.45;;;;;;;-140.72;100.00;52638.41;4951465;28;20034;-66
2022/08/20 04:53:13;;;;;;;4.80;2.25;;;;;;;-140.72;100.00;52670.88;4952112;28;20027;-66
2022/08/20 04:55:41;;;;;;;2.92;2.08;;;;;;;-140.72;100.00;52648.56;4949104;28;20027;-67
2022/08/20 04:58:11;;;;;;;6.65;2.42;;;;;;;-140.72;100.00;52622.19;4949422;28;20027;-67
2022/08/20 05:00:37;;;;;;;5.78;2.72;;;;;;;-140.72;100.00;52648.56;4950500;28;20552;-67
2022/08/20 05:03:03;;;;;;;7.75;2.55;;;;;;;-140.72;100.00;52666.84;4950822;28;20039;-66
2022/08/20 05:05:29;;;;;;;3.75;1.98;;;;;;;-140.72;100.00;52666.84;4949683;28;20031;-66
2022/08/20 05:07:56;;;;;;;4.13;1.90;;;;;;;-140.72;100.00;52679.00;4950702;29;20315;-66
2022/08/20 05:10:22;;;;;;;4.82;2.20;;;;;;;-140.72;100.00;52654.66;4949609;28;20023;-66
2022/08/20 05:12:49;;;;;;;3.13;2.20;;;;;;;-140.72;100.00;52626.25;4949496;28;20393;-67
2022/08/20 05:15:14;;;;;;;3.83;1.98;;;;;;;-140.72;100.00;52616.09;4949445;28;20038;-67
2022/08/20 05:17:41;;;;;;;3.72;1.77;;;;;;;-140.72;100.00;52642.47;4949899;28;20027;-66
2022/08/20 05:20:10;;;;;;;6.47;2.22;;;;;;;-140.72;100.00;52614.06;4950431;28;20027;-65
2022/08/20 05:22:35;;;;;;;4.80;2.67;;;;;;;-140.72;100.00;52622.19;4951871;28;20024;-66
2022/08/20 05:25:01;;;;;;;5.15;2.30;;;;;;;-140.72;100.00;52636.38;4951128;28;20078;-67
2022/08/20 05:27:28;;;;;;;6.75;2.30;;;;;;;-140.72;100.00;52630.31;4951113;28;20031;-66
2022/08/20 05:29:59;;;;;;;6.10;2.75;;;;;;;-140.72;100.00;52614.06;4952106;28;20065;-65
2022/08/20 05:32:25;;;;;;;3.95;2.20;;;;;;;-140.72;100.00;52622.19;4950765;28;20027;-67
2022/08/20 05:34:50;;;;;;;4.43;2.78;;;;;;;-140.72;100.00;52605.94;4951157;28;20051;-66
2022/08/20 05:37:16;;;;;;;5.60;2.50;;;;;;;-140.72;100.00;52628.28;4949595;28;20063;-67
2022/08/20 05:39:43;;;;;;;3.17;1.92;;;;;;;-140.72;100.00;52636.38;4947510;29;20043;-67
2022/08/20 05:42:10;;;;;;;3.08;2.35;;;;;;;-140.72;100.00;52605.94;4949043;28;20086;-66
2022/08/20 05:44:36;;;;;;;3.80;2.20;;;;;;;-140.72;100.00;52622.19;4945910;28;20483;-66
2022/08/20 05:47:03;;;;;;;6.20;2.55;;;;;;;-140.72;100.00;52638.41;4943924;28;20039;-67
2022/08/20 05:49:29;;;;;;;2.70;2.10;;;;;;;-140.72;100.00;52603.94;4951422;28;20106;-66
2022/08/20 05:51:54;;;;;;;3.85;2.47;;;;;;;-140.72;100.00;52644.50;4951384;28;20038;-66
2022/08/20 05:54:20;;;;;;;2.88;2.08;;;;;;;-140.72;100.00;52614.06;4950408;28;20032;-72
2022/08/20 05:56:45;;;;;;;4.20;2.17;;;;;;;-140.72;100.00;52557.25;4957935;28;20031;-73
2022/08/20 05:59:12;;;;;;;5.20;2.92;;;;;;;-140.72;100.00;52601.91;4953767;28;20043;-74
2022/08/20 06:01:39;;;;;;;4.13;2.03;;;;;;;-140.72;100.00;52628.28;4954632;28;20487;-72
2022/08/20 06:04:25;;;;;;;4.05;2.30;;;;;;;-140.72;100.00;52599.88;4944323;29;20031;-74
2022/08/20 06:07:10;;;;;;;2.92;2.20;;;;;;;-140.72;100.00;52618.13;4941676;29;20035;-71
2022/08/20 06:09:35;;;;;;;3.58;2.08;;;;;;;-140.72;100.00;52599.88;4951137;28;20031;-73
2022/08/20 06:12:04;;;;;;;4.10;1.90;;;;;;;-140.72;100.00;52573.50;4950500;28;20033;-73
2022/08/20 06:14:31;;;;;;;3.45;2.33;;;;;;;-140.72;100.00;52618.13;4949785;28;20027;-72
2022/08/20 06:17:05;;;;;;;4.50;2.08;;;;;;;-140.72;100.00;52587.69;4951303;28;20118;-74
2022/08/20 06:19:31;;;;;;;3.13;1.90;;;;;;;-140.72;100.00;52567.41;4951000;28;20364;-73
2022/08/20 06:21:56;;;;;;;2.75;1.63;;;;;;;-140.72;100.00;52614.06;4950513;28;20027;-72
2022/08/20 06:24:22;;;;;;;4.93;1.77;;;;;;;-140.72;100.00;52589.72;4950713;28;20074;-72
2022/08/20 06:26:54;;;;;;;4.68;1.73;;;;;;;-140.72;100.00;52618.13;4954452;28;20039;-75
2022/08/20 06:29:19;;;;;;;4.75;2.42;;;;;;;-140.72;100.00;52612.03;4956751;28;20039;-74
2022/08/20 06:31:45;;;;;;;2.22;1.48;;;;;;;-140.72;100.00;52618.13;4958278;28;20094;-74
2022/08/20 06:34:10;;;;;;;2.03;1.52;;;;;;;-140.72;100.00;52561.31;4953818;28;20051;-74
2022/08/20 06:36:35;;;;;;;3.47;1.67;;;;;;;-140.72;100.00;52571.47;4954230;29;20118;-74
2022/08/20 06:39:01;;;;;;;4.22;1.50;;;;;;;-140.72;100.00;52575.50;4954467;28;20066;-75
2022/08/20 06:41:26;;;;;;;3.70;1.63;;;;;;;-140.72;100.00;52601.91;4954653;29;20526;-74
2022/08/20 06:43:52;;;;;;;3.22;1.40;;;;;;;-140.72;100.00;52610.00;4954565;28;20054;-74
2022/08/20 06:46:18;;;;;;;3.50;1.38;;;;;;;-140.72;100.00;52526.81;4954025;28;20058;-73
2022/08/20 06:48:43;;;;;;;3.30;1.98;;;;;;;-140.72;100.00;52563.34;4953099;28;20038;-74
2022/08/20 06:51:09;;;;;;;3.08;1.23;;;;;;;-140.72;100.00;52569.44;4943618;29;20449;-74
2022/08/20 06:53:34;;;;;;;4.57;1.20;;;;;;;-140.72;100.00;52569.44;4954739;28;20110;-72
2022/08/20 06:56:00;;;;;;;4.35;1.10;;;;;;;-140.72;100.00;52557.25;4954612;28;20118;-73
2022/08/20 06:58:26;;;;;;;3.80;1.13;;;;;;;-140.72;100.00;52541.03;4952301;28;20030;-71
2022/08/20 07:00:51;;;;;;;1.83;1.08;;;;;;;-140.72;100.00;52561.31;4953046;28;20035;-73
2022/08/20 07:03:17;;;;;;;3.45;1.35;;;;;;;-140.72;100.00;52567.41;4953369;28;20482;-66
2022/08/20 07:05:44;;;;;;;4.20;1.60;;;;;;;-140.72;100.00;52561.31;4953799;28;20027;-66
2022/08/20 07:08:12;;;;;;;3.05;1.75;;;;;;;-140.72;100.00;52569.44;4951155;28;20042;-66
2022/08/20 07:10:40;;;;;;;4.00;1.45;;;;;;;-140.72;100.00;52541.03;4949645;28;20091;-66
2022/08/20 07:13:05;;;;;;;4.78;1.38;;;;;;;-140.72;100.00;52524.78;4953506;28;20122;-66
2022/08/20 07:15:32;;;;;;;1.83;1.10;;;;;;;-140.72;100.00;52518.69;4950683;28;20023;-65
2022/08/20 07:18:00;;;;;;;2.10;1.02;;;;;;;-140.72;100.00;52506.53;4949997;29;20032;-67
2022/08/20 07:20:27;;;;;;;1.88;1.00;;;;;;;-140.72;100.00;52543.03;4950359;28;20138;-67
2022/08/20 07:22:53;;;;;;;2.75;1.10;;;;;;;-140.72;100.00;52530.88;4953548;28;20027;-67
2022/08/20 07:25:20;;;;;;;1.98;0.80;;;;;;;-140.72;100.00;52536.97;4952882;28;20082;-66
2022/08/20 07:27:47;;;;;;;2.03;0.85;;;;;;;-140.72;100.00;52541.03;4955846;28;20031;-66
2022/08/20 07:33:06;;;;;;;3.00;1.13;;;;;;;-140.72;100.00;52518.69;4948372;28;20057;-67
2022/08/20 07:35:32;;;;;;;2.10;0.95;;;;;;;-140.72;100.00;52478.13;4953769;28;20047;-67
2022/08/20 07:37:57;;;;;;;1.50;0.63;;;;;;;-140.72;100.00;52516.66;4953077;28;20114;-67
2022/08/20 07:40:29;;;;;;;4.15;1.27;;;;;;;-140.72;100.00;52496.38;4945265;28;20034;-67
2022/08/20 07:42:57;;;;;;;3.97;0.70;;;;;;;-140.72;100.00;52500.44;4954365;28;20281;-65
2022/08/20 07:45:23;;;;;;;4.13;0.77;;;;;;;-140.72;100.00;52494.34;4952703;28;20031;-67
2022/08/20 07:47:49;;;;;;;1.50;0.60;;;;;;;-140.72;100.00;52478.13;4951798;28;20030;-66
2022/08/20 07:50:18;;;;;;;3.05;1.05;;;;;;;-140.72;100.00;52484.19;4946902;28;20411;-65
2022/08/20 07:52:44;;;;;;;4.60;0.90;;;;;;;-140.72;100.00;52449.72;4951770;28;20179;-67
2022/08/20 07:55:12;;;;;;;1.27;0.70;;;;;;;-140.72;100.00;52496.38;4952830;28;20074;-66
2022/08/20 07:57:38;;;;;;;2.60;0.57;;;;;;;-140.72;100.00;52480.16;4953158;28;20108;-65
2022/08/20 08:00:07;;;;;;;4.78;1.25;;;;;;;-140.72;100.00;52478.13;4951940;28;20148;-67
2022/08/20 08:02:32;;;;;;;1.90;0.80;;;;;;;-140.72;100.00;52486.22;4953027;28;20031;-67
2022/08/20 08:04:58;;;;;;;2.95;0.60;;;;;;;-140.72;100.00;52447.69;4953091;28;20082;-68
2022/08/20 08:07:25;;;;;;;4.40;1.08;;;;;;;-140.72;100.00;52443.63;4952968;28;20054;-65
2022/08/20 08:09:51;;;;;;;2.33;0.95;;;;;;;-140.72;100.00;52470.00;4953577;28;20031;-67
2022/08/20 08:12:16;;;;;;;3.78;0.93;;;;;;;-140.72;100.00;52472.03;4953769;28;20078;-65
2022/08/20 08:14:44;;;;;;;2.38;1.02;;;;;;;-140.72;100.00;52431.44;4952514;28;20023;-67
2022/08/20 08:17:11;;;;;;;1.58;0.55;;;;;;;-140.72;100.00;52467.97;4953386;28;20396;-68
2022/08/20 08:19:41;;;;;;;1.85;0.88;;;;;;;-140.72;100.00;52459.84;4953250;28;20409;-68
2022/08/20 08:22:12;;;;;;;1.13;0.65;;;;;;;-140.72;100.00;52421.28;4952740;28;20031;-66
2022/08/20 08:24:40;;;;;;;2.13;0.75;;;;;;;-140.72;0.00;52449.72;4953714;28;20487;-66
2022/08/20 08:27:07;;;;;;;3.13;1.10;;;;;;;-140.72;0.00;52433.47;4943267;28;20039;-67
2022/08/20 08:29:34;;;;;;;3.15;0.70;;;;;;;-140.72;0.00;52401.00;4940734;29;20107;-68
2022/08/20 08:32:01;;;;;;;4.55;0.88;;;;;;;-140.72;0.00;52411.16;4953498;28;20535;-66
2022/08/20 08:34:27;;;;;;;1.10;0.65;;;;;;;-140.72;0.00;52411.16;4952810;28;20061;-66
2022/08/20 08:36:52;;;;;;;5.28;0.60;;;;;;;-140.72;0.00;52392.88;4953003;28;20421;-67
2022/08/20 08:39:18;;;;;;;3.97;0.57;;;;;;;-140.72;0.00;52425.34;4952364;28;20027;-66
2022/08/20 08:41:49;;;;;;;2.13;0.68;;;;;;;-140.72;0.00;52374.63;4953325;28;20034;-65
2022/08/20 08:44:22;;;;;;;3.75;1.02;;;;;;;-140.72;0.00;52350.28;4952165;28;20480;-67
2022/08/20 08:46:52;;;;;;;1.63;0.65;;;;;;;-140.72;0.00;52364.47;4942284;28;20377;-66
2022/08/20 08:49:23;;;;;;;3.13;0.57;;;;;;;-140.72;0.00;52323.91;4949996;28;20031;-66
2022/08/20 08:52:05;;;;;;;1.95;0.63;;;;;;;-140.72;0.00;52325.94;4953311;28;20027;-67
2022/08/20 08:54:33;;;;;;;1.98;0.68;;;;;;;-140.72;0.00;52330.00;4952535;28;20023;-66
2022/08/20 08:56:59;;;;;;;1.58;0.47;;;;;;;-140.72;0.00;52305.63;4951777;28;20031;-66
2022/08/20 08:59:28;;;;;;;2.03;0.55;;;;;;;-140.72;0.00;52267.09;4952508;28;20670;-68
2022/08/20 09:01:57;;;;;;;1.88;0.68;;;;;;;-140.72;0.00;52289.41;4952607;28;20388;-67
2022/08/20 09:04:30;;;;;;;0.82;0.47;;;;;;;-140.72;0.00;52267.09;4951520;28;20031;-66
2022/08/20 09:06:57;;;;;;;1.90;0.50;;;;;;;-140.72;0.00;52236.66;4943563;28;20083;-67
2022/08/20 09:09:28;;;;;;;5.10;0.50;;;;;;;-140.72;0.00;52240.72;4948839;29;20027;-67
2022/08/20 09:12:01;;;;;;;3.13;0.70;;;;;;;-140.72;0.00;52232.59;4952387;28;20473;-66
2022/08/20 09:14:27;;;;;;;2.03;0.40;;;;;;;-140.72;0.00;52214.34;4952108;28;20049;-66
2022/08/20 09:16:52;;;;;;;5.32;0.60;;;;;;;-140.72;0.00;52212.31;4952507;28;20442;-66
2022/08/20 09:19:18;;;;;;;1.02;0.20;;;;;;;-140.72;0.00;52169.69;4951448;28;20102;-66
2022/08/20 09:21:43;;;;;;;1.65;0.50;;;;;;;-140.72;0.00;52222.44;4952490;28;20034;-67
2022/08/20 09:24:08;;;;;;;5.90;1.05;;;;;;;-140.72;0.00;52153.47;4950936;28;20042;-68
2022/08/20 09:26:34;;;;;;;1.52;0.20;;;;;;;-140.72;0.00;52187.97;4952748;28;20031;-67
2022/08/20 09:28:59;;;;;;;1.52;0.63;;;;;;;-140.72;0.00;52139.25;4951557;28;20039;-68
2022/08/20 09:31:25;;;;;;;3.70;0.73;;;;;;;-140.72;0.00;52143.31;4951078;28;20119;-66
2022/08/20 09:33:51;;;;;;;0.95;0.40;;;;;;;-140.72;0.00;52118.97;4952131;28;20031;-66
2022/08/20 09:36:17;;;;;;;3.15;0.70;;;;;;;-140.72;0.00;52171.72;4941153;28;20054;-66
2022/08/20 09:38:42;;;;;;;0.77;0.30;;;;;;;-140.72;0.00;52151.44;4950054;29;20031;-67
2022/08/20 09:41:07;;;;;;;1.20;0.40;;;;;;;-140.72;0.00;52167.66;4951575;28;20426;-67
2022/08/20 09:43:33;;;;;;;1.15;0.50;;;;;;;-140.72;0.00;52214.34;4951818;28;20102;-66
2022/08/20 09:45:58;;;;;;;2.20;0.77;;;;;;;-140.72;0.00;52248.81;4951746;28;20113;-65
2022/08/20 09:48:24;;;;;;;2.58;0.52;;;;;;;-140.72;0.00;52254.91;4951018;28;20034;-65
2022/08/20 09:50:49;;;;;;;2.55;0.55;;;;;;;-140.72;0.00;52189.97;4952428;28;20045;-67
2022/08/20 09:53:18;;;;;;;3.25;0.90;;;;;;;-140.72;0.00;52147.38;4950913;28;20287;-66
2022/08/20 09:55:47;;;;;;;6.63;0.75;;;;;;;-140.72;0.00;52192.00;4951638;28;20479;-67
2022/08/20 09:58:25;;;;;;;2.55;1.10;;;;;;;-140.72;0.00;52206.22;4951650;28;20031;-65
2022/08/20 10:00:50;;;;;;;7.40;0.60;;;;;;;-140.72;0.00;52112.88;4950561;28;20035;-66
2022/08/20 10:03:16;;;;;;;1.60;0.60;;;;;;;-140.72;0.00;52033.75;4951477;28;20027;-66
2022/08/20 10:05:42;;;;;;;1.75;0.50;;;;;;;-140.72;0.00;52054.03;4951997;28;20118;-65
2022/08/20 10:08:09;;;;;;;1.40;0.30;;;;;;;-140.72;0.00;52025.63;4950832;28;20037;-67
2022/08/20 10:10:35;;;;;;;1.40;0.40;;;;;;;-140.72;0.00;52049.97;4952402;28;20456;-66
2022/08/20 10:13:01;;;;;;;2.17;0.60;;;;;;;-140.72;0.00;52110.84;4951488;29;20034;-67
2022/08/20 10:15:28;;;;;;;3.85;0.65;;;;;;;-140.72;0.00;52143.31;4951113;28;20480;-65
2022/08/20 10:17:55;;;;;;;1.95;0.73;;;;;;;-140.72;0.00;52206.22;4951638;29;20031;-66
2022/08/20 10:20:22;;;;;;;1.20;0.35;;;;;;;-140.72;0.00;52220.41;4951319;28;20024;-65
2022/08/20 10:22:48;;;;;;;4.30;0.80;;;;;;;-140.72;0.00;52246.78;4951888;28;20031;-66
2022/08/20 10:25:15;;;;;;;1.27;0.50;;;;;;;-140.72;0.00;52244.78;4951291;28;20035;-66
2022/08/20 10:27:40;;;;;;;0.90;0.38;;;;;;;-140.72;0.00;52271.16;4951180;28;20285;-65
2022/08/20 10:30:08;;;;;;;2.92;0.82;;;;;;;-140.72;0.00;52275.19;4951675;28;20039;-67
2022/08/20 10:32:34;;;;;;;5.43;0.70;;;;;;;-140.72;0.00;52321.88;4951946;28;20027;-67
2022/08/20 10:34:59;;;;;;;1.45;0.40;;;;;;;-140.72;0.00;52323.91;4950753;28;20058;-66
2022/08/20 10:37:25;;;;;;;2.38;0.75;;;;;;;-140.72;0.00;52342.16;4951927;28;20227;-66
2022/08/20 10:39:52;;;;;;;1.48;0.68;;;;;;;-140.72;0.00;52169.69;4951361;28;20027;-66
2022/08/20 10:42:18;;;;;;;2.72;0.93;;;;;;;-140.72;0.00;52118.97;4950857;28;20032;-67
2022/08/20 10:44:45;;;;;;;2.05;0.40;;;;;;;-140.72;0.00;52039.84;4951891;28;20035;-66
2022/08/20 10:47:17;;;;;;;2.03;0.40;;;;;;;-140.72;0.00;51989.13;4951084;28;20039;-68
2022/08/20 10:49:42;;;;;;;4.57;0.90;;;;;;;-140.72;0.00;52005.34;4951012;28;20058;-66
2022/08/20 10:52:07;;;;;;;1.55;0.47;;;;;;;-140.72;0.00;51991.16;4951054;28;20115;-67
2022/08/20 10:54:33;;;;;;;4.13;0.63;;;;;;;-140.72;0.00;51936.38;4951304;28;20110;-66
2022/08/20 10:57:22;;;;;;;0.98;0.47;;;;;;;-140.72;0.00;51903.91;4950767;29;20027;-67
2022/08/20 10:59:50;;;;;;;1.65;0.60;;;;;;;-140.72;0.00;52029.69;4951625;28;20411;-67
2022/08/20 11:02:17;;;;;;;1.98;0.57;;;;;;;-140.72;0.00;52037.81;4951166;28;20118;-65
2022/08/20 11:04:42;;;;;;;1.00;0.32;;;;;;;-140.72;0.00;52096.66;4950515;28;20027;-65
2022/08/20 11:07:22;;;;;;;0.80;0.30;;;;;;;-140.72;0.00;52125.06;4940562;28;20027;-66
2022/08/20 11:09:48;;;;;;;1.92;0.60;;;;;;;-140.72;0.00;52192.00;4931955;29;20143;-65
2022/08/20 11:12:16;;;;;;;0.77;0.30;;;;;;;-140.72;0.00;52206.22;4946333;28;20073;-65
2022/08/20 11:14:41;;;;;;;1.17;0.35;;;;;;;-140.72;0.00;52187.97;4954794;28;20473;-65
2022/08/20 11:17:07;;;;;;;1.65;0.22;;;;;;;-140.72;0.00;52220.41;4953716;28;20127;-65
2022/08/20 11:19:37;;;;;;;3.88;0.30;;;;;;;-140.72;0.00;52204.19;4954696;28;20126;-66